sensor_id;sensor_type;location;lat;lon;timestamp;noise_LAeq;noise_LA_min;noise_LA_max;noise_LA01;noise_LA95
43787;Laerm;29409;49.306;8.500;2023-05-02T00:00:21;40.60;37.70;44.47;;
43787;Laerm;29409;49.306;8.500;2023-05-02T00:01:21;40.54;37.88;43.09;;
43787;Laerm;29409;49.306;8.500;2023-05-02T00:02:21;41.26;38.21;44.35;;
43787;Laerm;29409;49.306;8.500;2023-05-02T00:03:21;41.12;38.52;43.54;;
43787;Laerm;29409;49.306;8.500;2023-05-02T00:04:22;40.76;36.20;43.86;;
43787;Laerm;29409;49.306;8.500;2023-05-02T00:05:23;40.95;38.18;43.24;;
43787;Laerm;29409;49.306;8.500;2023-05-02T00:06:23;41.50;39.46;43.58;;
43787;Laerm;29409;49.306;8.500;2023-05-02T00:07:23;41.57;38.67;44.27;;
43787;Laerm;29409;49.306;8.500;2023-05-02T00:08:25;41.42;38.05;44.19;;
43787;Laerm;29409;49.306;8.500;2023-05-02T00:09:25;41.83;39.08;45.63;;
43787;Laerm;29409;49.306;8.500;2023-05-02T00:10:26;42.06;39.46;44.62;;
43787;Laerm;29409;49.306;8.500;2023-05-02T00:11:26;41.78;39.08;44.51;;
43787;Laerm;29409;49.306;8.500;2023-05-02T00:12:27;41.66;38.81;45.14;;
43787;Laerm;29409;49.306;8.500;2023-05-02T00:13:27;40.98;37.88;43.86;;
43787;Laerm;29409;49.306;8.500;2023-05-02T00:14:27;40.55;37.70;42.65;;
43787;Laerm;29409;49.306;8.500;2023-05-02T00:15:28;40.76;38.21;42.76;;
43787;Laerm;29409;49.306;8.500;2023-05-02T00:16:28;41.04;38.21;43.19;;
43787;Laerm;29409;49.306;8.500;2023-05-02T00:17:28;41.00;38.21;43.29;;
43787;Laerm;29409;49.306;8.500;2023-05-02T00:18:29;41.03;38.37;43.14;;
43787;Laerm;29409;49.306;8.500;2023-05-02T00:19:30;40.83;37.88;43.72;;
43787;Laerm;29409;49.306;8.500;2023-05-02T00:20:30;41.16;38.21;43.72;;
43787;Laerm;29409;49.306;8.500;2023-05-02T00:21:30;40.65;38.21;43.29;;
43787;Laerm;29409;49.306;8.500;2023-05-02T00:22:31;40.74;37.70;43.29;;
43787;Laerm;29409;49.306;8.500;2023-05-02T00:23:33;40.37;37.52;42.93;;
43787;Laerm;29409;49.306;8.500;2023-05-02T00:24:33;40.97;37.32;43.24;;
43787;Laerm;29409;49.306;8.500;2023-05-02T00:25:34;41.01;38.05;48.49;;
43787;Laerm;29409;49.306;8.500;2023-05-02T00:26:35;41.31;38.52;43.86;;
43787;Laerm;29409;49.306;8.500;2023-05-02T00:27:35;41.54;38.81;44.27;;
43787;Laerm;29409;49.306;8.500;2023-05-02T00:28:35;42.23;39.34;44.39;;
43787;Laerm;29409;49.306;8.500;2023-05-02T00:29:35;41.32;36.91;44.94;;
43787;Laerm;29409;49.306;8.500;2023-05-02T00:30:40;40.96;37.88;44.08;;
43787;Laerm;29409;49.306;8.500;2023-05-02T00:31:41;41.51;38.05;44.23;;
43787;Laerm;29409;49.306;8.500;2023-05-02T00:32:41;42.08;39.46;45.01;;
43787;Laerm;29409;49.306;8.500;2023-05-02T00:33:41;41.45;37.70;45.42;;
43787;Laerm;29409;49.306;8.500;2023-05-02T00:34:41;40.88;38.05;43.24;;
43787;Laerm;29409;49.306;8.500;2023-05-02T00:35:42;41.31;38.52;44.03;;
43787;Laerm;29409;49.306;8.500;2023-05-02T00:36:42;41.47;38.52;43.77;;
43787;Laerm;29409;49.306;8.500;2023-05-02T00:37:42;41.72;38.67;43.99;;
43787;Laerm;29409;49.306;8.500;2023-05-02T00:38:43;41.52;38.81;43.77;;
43787;Laerm;29409;49.306;8.500;2023-05-02T00:39:43;42.10;39.21;44.73;;
43787;Laerm;29409;49.306;8.500;2023-05-02T00:40:44;41.45;38.67;43.54;;
43787;Laerm;29409;49.306;8.500;2023-05-02T00:41:45;41.43;38.52;44.31;;
43787;Laerm;29409;49.306;8.500;2023-05-02T00:42:45;41.31;38.67;44.35;;
43787;Laerm;29409;49.306;8.500;2023-05-02T00:43:45;41.07;38.37;43.54;;
43787;Laerm;29409;49.306;8.500;2023-05-02T00:44:45;40.77;37.70;42.82;;
43787;Laerm;29409;49.306;8.500;2023-05-02T00:45:46;41.57;38.21;44.90;;
43787;Laerm;29409;49.306;8.500;2023-05-02T00:46:46;41.74;38.67;44.27;;
43787;Laerm;29409;49.306;8.500;2023-05-02T00:47:48;40.68;37.32;43.44;;
43787;Laerm;29409;49.306;8.500;2023-05-02T00:48:48;41.77;38.95;44.45;;
43787;Laerm;29409;49.306;8.500;2023-05-02T00:49:49;41.88;39.08;45.23;;
43787;Laerm;29409;49.306;8.500;2023-05-02T00:50:49;41.75;38.37;44.11;;
43787;Laerm;29409;49.306;8.500;2023-05-02T00:51:49;42.10;39.08;44.62;;
43787;Laerm;29409;49.306;8.500;2023-05-02T00:52:50;41.56;38.95;43.99;;
43787;Laerm;29409;49.306;8.500;2023-05-02T00:53:50;41.89;38.52;45.30;;
43787;Laerm;29409;49.306;8.500;2023-05-02T00:54:51;42.17;38.81;44.97;;
43787;Laerm;29409;49.306;8.500;2023-05-02T00:55:51;41.54;38.21;44.76;;
43787;Laerm;29409;49.306;8.500;2023-05-02T00:56:53;41.11;37.52;43.19;;
43787;Laerm;29409;49.306;8.500;2023-05-02T00:57:53;41.66;37.52;46.62;;
43787;Laerm;29409;49.306;8.500;2023-05-02T00:58:53;42.78;39.46;63.32;;
43787;Laerm;29409;49.306;8.500;2023-05-02T00:59:54;42.61;38.81;55.40;;
43787;Laerm;29409;49.306;8.500;2023-05-02T01:01:02;41.15;38.37;43.89;;
43787;Laerm;29409;49.306;8.500;2023-05-02T01:03:15;41.13;38.52;43.44;;
43787;Laerm;29409;49.306;8.500;2023-05-02T01:04:30;41.64;38.81;44.58;;
43787;Laerm;29409;49.306;8.500;2023-05-02T01:05:42;41.07;38.37;42.98;;
43787;Laerm;29409;49.306;8.500;2023-05-02T01:06:47;41.29;38.60;43.34;;
43787;Laerm;29409;49.306;8.500;2023-05-02T01:07:59;41.10;38.05;43.54;;
43787;Laerm;29409;49.306;8.500;2023-05-02T01:11:34;40.95;38.21;43.14;;
43787;Laerm;29409;49.306;8.500;2023-05-02T01:12:41;41.29;37.52;66.46;;
43787;Laerm;29409;49.306;8.500;2023-05-02T01:13:42;40.45;37.70;42.76;;
43787;Laerm;29409;49.306;8.500;2023-05-02T01:14:44;40.25;37.52;42.65;;
43787;Laerm;29409;49.306;8.500;2023-05-02T01:15:46;40.81;37.70;45.30;;
43787;Laerm;29409;49.306;8.500;2023-05-02T01:16:47;40.20;37.12;42.71;;
43787;Laerm;29409;49.306;8.500;2023-05-02T01:17:49;40.08;37.12;42.29;;
43787;Laerm;29409;49.306;8.500;2023-05-02T01:18:50;40.24;37.70;42.29;;
43787;Laerm;29409;49.306;8.500;2023-05-02T01:19:51;40.30;37.12;43.49;;
43787;Laerm;29409;49.306;8.500;2023-05-02T01:20:56;40.71;37.52;43.04;;
43787;Laerm;29409;49.306;8.500;2023-05-02T01:21:58;40.98;38.52;42.85;;
43787;Laerm;29409;49.306;8.500;2023-05-02T01:23:02;41.26;38.37;43.29;;
43787;Laerm;29409;49.306;8.500;2023-05-02T01:29:05;41.00;38.21;43.14;;
43787;Laerm;29409;49.306;8.500;2023-05-02T01:30:07;41.09;38.81;49.36;;
43787;Laerm;29409;49.306;8.500;2023-05-02T01:31:09;40.67;37.88;42.71;;
43787;Laerm;29409;49.306;8.500;2023-05-02T01:32:10;40.40;37.70;42.41;;
43787;Laerm;29409;49.306;8.500;2023-05-02T01:33:13;40.68;38.05;43.24;;
43787;Laerm;29409;49.306;8.500;2023-05-02T01:34:13;40.91;38.05;42.85;;
43787;Laerm;29409;49.306;8.500;2023-05-02T01:35:15;40.94;37.52;42.88;;
43787;Laerm;29409;49.306;8.500;2023-05-02T01:36:16;43.21;39.21;52.47;;
43787;Laerm;29409;49.306;8.500;2023-05-02T01:37:18;41.19;38.81;43.58;;
43787;Laerm;29409;49.306;8.500;2023-05-02T01:38:19;41.02;38.37;42.93;;
43787;Laerm;29409;49.306;8.500;2023-05-02T01:39:21;43.99;38.37;56.26;;
43787;Laerm;29409;49.306;8.500;2023-05-02T01:40:23;43.35;38.81;70.77;;
43787;Laerm;29409;49.306;8.500;2023-05-02T01:41:25;41.76;38.95;44.27;;
43787;Laerm;29409;49.306;8.500;2023-05-02T01:42:25;41.12;38.67;44.11;;
43787;Laerm;29409;49.306;8.500;2023-05-02T01:43:26;40.92;38.52;44.47;;
43787;Laerm;29409;49.306;8.500;2023-05-02T01:44:27;41.19;38.21;43.34;;
43787;Laerm;29409;49.306;8.500;2023-05-02T01:45:28;41.36;38.95;43.89;;
43787;Laerm;29409;49.306;8.500;2023-05-02T01:46:30;41.07;37.88;43.24;;
43787;Laerm;29409;49.306;8.500;2023-05-02T01:47:34;40.72;37.12;43.19;;
43787;Laerm;29409;49.306;8.500;2023-05-02T01:48:35;41.16;38.37;43.44;;
43787;Laerm;29409;49.306;8.500;2023-05-02T01:49:36;40.79;38.05;42.71;;
43787;Laerm;29409;49.306;8.500;2023-05-02T01:50:36;40.98;37.52;45.78;;
43787;Laerm;29409;49.306;8.500;2023-05-02T01:51:44;40.90;38.47;42.71;;
43787;Laerm;29409;49.306;8.500;2023-05-02T01:52:45;41.14;38.05;43.04;;
43787;Laerm;29409;49.306;8.500;2023-05-02T01:53:46;41.64;39.21;43.44;;
43787;Laerm;29409;49.306;8.500;2023-05-02T01:54:49;41.58;38.81;45.40;;
43787;Laerm;29409;49.306;8.500;2023-05-02T01:55:49;41.34;38.52;43.19;;
43787;Laerm;29409;49.306;8.500;2023-05-02T01:56:51;41.60;38.52;45.63;;
43787;Laerm;29409;49.306;8.500;2023-05-02T01:57:52;41.54;38.05;43.77;;
43787;Laerm;29409;49.306;8.500;2023-05-02T01:58:53;41.95;39.08;47.14;;
43787;Laerm;29409;49.306;8.500;2023-05-02T01:59:55;43.12;39.70;49.03;;
43787;Laerm;29409;49.306;8.500;2023-05-02T02:00:56;41.67;38.52;46.64;;
43787;Laerm;29409;49.306;8.500;2023-05-02T02:01:59;40.96;38.37;43.14;;
43787;Laerm;29409;49.306;8.500;2023-05-02T02:03:00;40.86;38.05;43.09;;
43787;Laerm;29409;49.306;8.500;2023-05-02T02:04:01;41.65;38.32;45.89;;
43787;Laerm;29409;49.306;8.500;2023-05-02T02:05:03;41.93;39.34;48.05;;
43787;Laerm;29409;49.306;8.500;2023-05-02T02:06:04;41.87;39.34;44.15;;
43787;Laerm;29409;49.306;8.500;2023-05-02T02:07:06;41.58;39.21;43.44;;
43787;Laerm;29409;49.306;8.500;2023-05-02T02:08:07;41.95;39.08;43.86;;
43787;Laerm;29409;49.306;8.500;2023-05-02T02:09:08;42.21;39.46;44.59;;
43787;Laerm;29409;49.306;8.500;2023-05-02T02:10:08;42.54;40.03;44.62;;
43787;Laerm;29409;49.306;8.500;2023-05-02T02:11:10;42.04;38.81;43.90;;
43787;Laerm;29409;49.306;8.500;2023-05-02T02:12:11;42.40;40.03;44.35;;
43787;Laerm;29409;49.306;8.500;2023-05-02T02:13:18;42.61;40.13;45.51;;
43787;Laerm;29409;49.306;8.500;2023-05-02T02:14:24;42.53;40.33;44.58;;
43787;Laerm;29409;49.306;8.500;2023-05-02T02:15:26;42.53;40.13;44.19;;
43787;Laerm;29409;49.306;8.500;2023-05-02T02:16:29;42.62;40.43;44.83;;
43787;Laerm;29409;49.306;8.500;2023-05-02T02:17:31;42.34;39.92;43.94;;
43787;Laerm;29409;49.306;8.500;2023-05-02T02:18:35;42.20;39.08;44.31;;
43787;Laerm;29409;49.306;8.500;2023-05-02T02:19:37;41.96;39.70;44.47;;
43787;Laerm;29409;49.306;8.500;2023-05-02T02:20:39;42.05;39.34;44.76;;
43787;Laerm;29409;49.306;8.500;2023-05-02T02:21:42;42.58;39.92;44.87;;
43787;Laerm;29409;49.306;8.500;2023-05-02T02:22:43;42.44;39.21;50.00;;
43787;Laerm;29409;49.306;8.500;2023-05-02T02:23:44;42.77;40.23;48.48;;
43787;Laerm;29409;49.306;8.500;2023-05-02T02:24:47;42.53;40.23;44.35;;
43787;Laerm;29409;49.306;8.500;2023-05-02T02:25:48;42.77;40.62;44.58;;
43787;Laerm;29409;49.306;8.500;2023-05-02T02:26:49;42.76;40.71;46.23;;
43787;Laerm;29409;49.306;8.500;2023-05-02T02:27:50;43.32;41.06;45.11;;
43787;Laerm;29409;49.306;8.500;2023-05-02T02:28:50;43.47;41.38;45.30;;
43787;Laerm;29409;49.306;8.500;2023-05-02T02:29:51;43.30;41.30;45.27;;
43787;Laerm;29409;49.306;8.500;2023-05-02T02:30:51;43.53;40.98;47.26;;
43787;Laerm;29409;49.306;8.500;2023-05-02T02:31:51;42.91;40.43;44.83;;
43787;Laerm;29409;49.306;8.500;2023-05-02T02:32:52;43.18;40.80;44.87;;
43787;Laerm;29409;49.306;8.500;2023-05-02T02:33:52;43.04;40.33;44.90;;
43787;Laerm;29409;49.306;8.500;2023-05-02T02:34:52;42.73;39.92;44.94;;
43787;Laerm;29409;49.306;8.500;2023-05-02T02:35:57;42.49;39.81;44.47;;
43787;Laerm;29409;49.306;8.500;2023-05-02T02:37:02;42.47;40.23;49.32;;
43787;Laerm;29409;49.306;8.500;2023-05-02T02:39:15;42.23;39.99;44.86;;
43787;Laerm;29409;49.306;8.500;2023-05-02T02:41:35;43.10;40.89;46.25;;
43787;Laerm;29409;49.306;8.500;2023-05-02T02:43:52;42.67;40.43;44.62;;
43787;Laerm;29409;49.306;8.500;2023-05-02T02:46:40;42.46;40.43;43.81;;
43787;Laerm;29409;49.306;8.500;2023-05-02T02:47:44;42.99;40.62;44.80;;
43787;Laerm;29409;49.306;8.500;2023-05-02T02:51:09;43.16;41.22;45.33;;
43787;Laerm;29409;49.306;8.500;2023-05-02T02:53:17;43.16;41.14;45.07;;
43787;Laerm;29409;49.306;8.500;2023-05-02T02:54:38;43.34;41.14;44.94;;
43787;Laerm;29409;49.306;8.500;2023-05-02T02:55:46;42.77;40.62;44.73;;
43787;Laerm;29409;49.306;8.500;2023-05-02T02:56:50;42.66;40.62;45.07;;
43787;Laerm;29409;49.306;8.500;2023-05-02T02:59:04;42.00;39.70;43.68;;
43787;Laerm;29409;49.306;8.500;2023-05-02T03:01:10;42.78;40.53;46.35;;
43787;Laerm;29409;49.306;8.500;2023-05-02T03:02:14;42.59;40.43;44.15;;
43787;Laerm;29409;49.306;8.500;2023-05-02T03:03:16;43.22;40.33;47.26;;
43787;Laerm;29409;49.306;8.500;2023-05-02T03:04:17;43.04;40.80;47.38;;
43787;Laerm;29409;49.306;8.500;2023-05-02T03:05:18;43.09;41.22;44.47;;
43787;Laerm;29409;49.306;8.500;2023-05-02T03:06:20;43.65;41.14;47.55;;
43787;Laerm;29409;49.306;8.500;2023-05-02T03:07:20;43.22;41.14;44.87;;
43787;Laerm;29409;49.306;8.500;2023-05-02T03:08:21;43.42;41.53;45.45;;
43787;Laerm;29409;49.306;8.500;2023-05-02T03:09:21;43.32;41.53;44.73;;
43787;Laerm;29409;49.306;8.500;2023-05-02T03:10:21;43.36;41.14;46.25;;
43787;Laerm;29409;49.306;8.500;2023-05-02T03:11:22;43.43;41.30;45.83;;
43787;Laerm;29409;49.306;8.500;2023-05-02T03:12:22;43.46;41.22;45.07;;
43787;Laerm;29409;49.306;8.500;2023-05-02T03:13:23;44.20;42.22;48.77;;
43787;Laerm;29409;49.306;8.500;2023-05-02T03:14:23;47.03;41.75;57.35;;
43787;Laerm;29409;49.306;8.500;2023-05-02T03:17:24;43.92;41.68;46.57;;
43787;Laerm;29409;49.306;8.500;2023-05-02T03:18:24;44.18;42.53;46.40;;
43787;Laerm;29409;49.306;8.500;2023-05-02T03:19:24;44.87;43.19;47.68;;
43787;Laerm;29409;49.306;8.500;2023-05-02T03:20:25;45.08;43.19;48.21;;
43787;Laerm;29409;49.306;8.500;2023-05-02T03:21:26;44.31;42.47;46.57;;
43787;Laerm;29409;49.306;8.500;2023-05-02T03:22:26;44.04;41.82;47.10;;
43787;Laerm;29409;49.306;8.500;2023-05-02T03:23:26;43.48;41.61;45.94;;
43787;Laerm;29409;49.306;8.500;2023-05-02T03:24:27;43.69;41.68;48.00;;
43787;Laerm;29409;49.306;8.500;2023-05-02T03:25:27;43.59;41.38;48.80;;
43787;Laerm;29409;49.306;8.500;2023-05-02T03:26:27;43.21;41.38;47.63;;
43787;Laerm;29409;49.306;8.500;2023-05-02T03:27:27;43.45;41.30;47.32;;
43787;Laerm;29409;49.306;8.500;2023-05-02T03:28:28;43.54;41.38;50.85;;
43787;Laerm;29409;49.306;8.500;2023-05-02T03:29:28;43.77;41.53;49.29;;
43787;Laerm;29409;49.306;8.500;2023-05-02T03:30:28;43.77;41.96;46.43;;
43787;Laerm;29409;49.306;8.500;2023-05-02T03:31:29;43.97;41.46;50.30;;
43787;Laerm;29409;49.306;8.500;2023-05-02T03:32:29;44.96;41.38;52.53;;
43787;Laerm;29409;49.306;8.500;2023-05-02T03:33:30;43.44;41.38;49.30;;
43787;Laerm;29409;49.306;8.500;2023-05-02T03:34:31;43.62;41.38;52.24;;
43787;Laerm;29409;49.306;8.500;2023-05-02T03:35:31;43.53;41.53;46.43;;
43787;Laerm;29409;49.306;8.500;2023-05-02T03:36:32;43.99;41.96;47.28;;
43787;Laerm;29409;49.306;8.500;2023-05-02T03:37:35;43.73;41.68;46.15;;
43787;Laerm;29409;49.306;8.500;2023-05-02T03:38:35;43.72;41.96;46.13;;
43787;Laerm;29409;49.306;8.500;2023-05-02T03:39:36;47.90;42.41;58.91;;
43787;Laerm;29409;49.306;8.500;2023-05-02T03:40:36;45.17;42.22;61.71;;
43787;Laerm;29409;49.306;8.500;2023-05-02T03:41:36;44.75;42.47;49.85;;
43787;Laerm;29409;49.306;8.500;2023-05-02T03:42:36;44.94;42.29;51.32;;
43787;Laerm;29409;49.306;8.500;2023-05-02T03:43:40;44.33;41.68;50.67;;
43787;Laerm;29409;49.306;8.500;2023-05-02T03:44:40;45.15;41.61;52.53;;
43787;Laerm;29409;49.306;8.500;2023-05-02T03:45:40;44.55;41.75;51.01;;
43787;Laerm;29409;49.306;8.500;2023-05-02T03:46:41;44.87;41.89;51.95;;
43787;Laerm;29409;49.306;8.500;2023-05-02T03:47:42;44.61;41.38;51.63;;
43787;Laerm;29409;49.306;8.500;2023-05-02T03:48:42;44.10;41.38;49.52;;
43787;Laerm;29409;49.306;8.500;2023-05-02T03:49:44;43.99;40.80;50.09;;
43787;Laerm;29409;49.306;8.500;2023-05-02T03:50:45;43.76;40.89;51.30;;
43787;Laerm;29409;49.306;8.500;2023-05-02T03:51:45;44.10;41.06;51.97;;
43787;Laerm;29409;49.306;8.500;2023-05-02T03:52:45;45.16;41.06;66.64;;
43787;Laerm;29409;49.306;8.500;2023-05-02T03:53:45;44.09;41.30;52.67;;
43787;Laerm;29409;49.306;8.500;2023-05-02T03:54:46;44.89;41.68;54.45;;
43787;Laerm;29409;49.306;8.500;2023-05-02T03:55:46;44.45;41.53;54.46;;
43787;Laerm;29409;49.306;8.500;2023-05-02T03:56:46;45.14;41.96;53.55;;
43787;Laerm;29409;49.306;8.500;2023-05-02T03:57:46;45.08;41.75;55.26;;
43787;Laerm;29409;49.306;8.500;2023-05-02T03:58:47;44.95;42.16;53.73;;
43787;Laerm;29409;49.306;8.500;2023-05-02T03:59:47;44.43;41.82;53.57;;
43787;Laerm;29409;49.306;8.500;2023-05-02T04:00:48;48.64;41.75;64.23;;
43787;Laerm;29409;49.306;8.500;2023-05-02T04:01:48;45.72;42.35;55.69;;
43787;Laerm;29409;49.306;8.500;2023-05-02T04:02:51;46.01;42.35;58.96;;
43787;Laerm;29409;49.306;8.500;2023-05-02T04:03:51;47.97;42.59;63.98;;
43787;Laerm;29409;49.306;8.500;2023-05-02T04:04:52;46.40;42.35;62.43;;
43787;Laerm;29409;49.306;8.500;2023-05-02T04:05:52;50.86;41.61;65.10;;
43787;Laerm;29409;49.306;8.500;2023-05-02T04:06:53;45.13;42.35;57.73;;
43787;Laerm;29409;49.306;8.500;2023-05-02T04:07:54;44.70;41.96;53.60;;
43787;Laerm;29409;49.306;8.500;2023-05-02T04:08:54;44.54;42.09;51.97;;
43787;Laerm;29409;49.306;8.500;2023-05-02T04:09:54;44.35;42.35;48.75;;
43787;Laerm;29409;49.306;8.500;2023-05-02T04:10:55;43.75;41.46;52.83;;
43787;Laerm;29409;49.306;8.500;2023-05-02T04:11:55;43.75;41.75;50.49;;
43787;Laerm;29409;49.306;8.500;2023-05-02T04:12:55;44.30;41.82;53.35;;
43787;Laerm;29409;49.306;8.500;2023-05-02T04:13:55;44.71;42.29;51.00;;
43787;Laerm;29409;49.306;8.500;2023-05-02T04:14:55;44.43;42.03;50.67;;
43787;Laerm;29409;49.306;8.500;2023-05-02T04:15:56;44.57;41.96;57.05;;
43787;Laerm;29409;49.306;8.500;2023-05-02T04:16:56;44.42;41.53;56.44;;
43787;Laerm;29409;49.306;8.500;2023-05-02T04:17:57;44.81;42.29;50.18;;
43787;Laerm;29409;49.306;8.500;2023-05-02T04:18:57;44.91;42.29;53.75;;
43787;Laerm;29409;49.306;8.500;2023-05-02T04:19:58;46.40;42.88;61.05;;
43787;Laerm;29409;49.306;8.500;2023-05-02T04:20:58;46.40;42.71;62.09;;
43787;Laerm;29409;49.306;8.500;2023-05-02T04:21:58;45.51;42.59;56.33;;
43787;Laerm;29409;49.306;8.500;2023-05-02T04:22:58;46.91;42.93;59.79;;
43787;Laerm;29409;49.306;8.500;2023-05-02T04:23:59;47.12;42.85;59.57;;
43787;Laerm;29409;49.306;8.500;2023-05-02T04:24:59;52.76;42.59;68.93;;
43787;Laerm;29409;49.306;8.500;2023-05-02T04:25:59;46.59;42.76;72.15;;
43787;Laerm;29409;49.306;8.500;2023-05-02T04:27:00;45.76;43.14;59.53;;
43787;Laerm;29409;49.306;8.500;2023-05-02T04:28:00;46.07;43.19;53.75;;
43787;Laerm;29409;49.306;8.500;2023-05-02T04:29:01;45.02;43.19;48.25;;
43787;Laerm;29409;49.306;8.500;2023-05-02T04:30:01;44.63;43.14;51.37;;
43787;Laerm;29409;49.306;8.500;2023-05-02T04:31:01;45.12;43.04;48.71;;
43787;Laerm;29409;49.306;8.500;2023-05-02T04:32:03;45.32;43.49;50.07;;
43787;Laerm;29409;49.306;8.500;2023-05-02T04:33:03;45.42;42.88;49.64;;
43787;Laerm;29409;49.306;8.500;2023-05-02T04:34:03;44.89;42.93;49.45;;
43787;Laerm;29409;49.306;8.500;2023-05-02T04:35:03;44.90;42.76;51.36;;
43787;Laerm;29409;49.306;8.500;2023-05-02T04:36:04;44.68;42.93;52.15;;
43787;Laerm;29409;49.306;8.500;2023-05-02T04:37:05;45.71;43.09;51.79;;
43787;Laerm;29409;49.306;8.500;2023-05-02T04:38:06;45.23;42.47;50.58;;
43787;Laerm;29409;49.306;8.500;2023-05-02T04:39:06;44.99;42.41;52.70;;
43787;Laerm;29409;49.306;8.500;2023-05-02T04:40:07;45.56;42.53;53.69;;
43787;Laerm;29409;49.306;8.500;2023-05-02T04:41:07;44.96;42.47;58.13;;
43787;Laerm;29409;49.306;8.500;2023-05-02T04:42:08;45.66;42.22;59.79;;
43787;Laerm;29409;49.306;8.500;2023-05-02T04:43:08;45.06;42.59;51.44;;
43787;Laerm;29409;49.306;8.500;2023-05-02T04:44:09;45.77;42.41;55.81;;
43787;Laerm;29409;49.306;8.500;2023-05-02T04:45:09;46.92;43.19;53.86;;
43787;Laerm;29409;49.306;8.500;2023-05-02T04:46:10;48.53;42.76;61.82;;
43787;Laerm;29409;49.306;8.500;2023-05-02T04:47:10;49.01;42.98;61.00;;
43787;Laerm;29409;49.306;8.500;2023-05-02T04:48:11;46.31;42.82;56.20;;
43787;Laerm;29409;49.306;8.500;2023-05-02T04:49:11;44.61;42.35;48.77;;
43787;Laerm;29409;49.306;8.500;2023-05-02T04:50:11;43.98;41.89;47.24;;
43787;Laerm;29409;49.306;8.500;2023-05-02T04:51:12;44.42;42.65;49.05;;
43787;Laerm;29409;49.306;8.500;2023-05-02T04:52:12;46.07;42.65;65.20;;
43787;Laerm;29409;49.306;8.500;2023-05-02T04:53:12;45.31;42.76;52.18;;
43787;Laerm;29409;49.306;8.500;2023-05-02T04:54:13;44.54;42.22;54.97;;
43787;Laerm;29409;49.306;8.500;2023-05-02T04:55:13;44.56;42.29;55.38;;
43787;Laerm;29409;49.306;8.500;2023-05-02T04:56:13;44.17;42.47;48.08;;
43787;Laerm;29409;49.306;8.500;2023-05-02T04:57:13;44.57;42.35;52.06;;
43787;Laerm;29409;49.306;8.500;2023-05-02T04:58:14;44.96;41.75;52.96;;
43787;Laerm;29409;49.306;8.500;2023-05-02T04:59:14;45.25;41.82;54.91;;
43787;Laerm;29409;49.306;8.500;2023-05-02T05:00:14;46.96;42.76;56.93;;
43787;Laerm;29409;49.306;8.500;2023-05-02T05:01:15;44.68;41.96;49.55;;
43787;Laerm;29409;49.306;8.500;2023-05-02T05:02:15;45.76;42.53;52.35;;
43787;Laerm;29409;49.306;8.500;2023-05-02T05:03:16;46.57;43.04;55.13;;
43787;Laerm;29409;49.306;8.500;2023-05-02T05:04:16;47.33;42.30;59.64;;
43787;Laerm;29409;49.306;8.500;2023-05-02T05:05:16;47.53;42.09;59.05;;
43787;Laerm;29409;49.306;8.500;2023-05-02T05:06:17;46.82;42.16;58.81;;
43787;Laerm;29409;49.306;8.500;2023-05-02T05:07:18;48.70;42.29;59.61;;
43787;Laerm;29409;49.306;8.500;2023-05-02T05:08:18;44.65;42.29;51.40;;
43787;Laerm;29409;49.306;8.500;2023-05-02T05:09:18;44.03;41.96;49.39;;
43787;Laerm;29409;49.306;8.500;2023-05-02T05:10:19;44.23;41.75;50.34;;
43787;Laerm;29409;49.306;8.500;2023-05-02T05:11:19;45.13;42.53;51.26;;
43787;Laerm;29409;49.306;8.500;2023-05-02T05:12:19;44.45;42.29;54.85;;
43787;Laerm;29409;49.306;8.500;2023-05-02T05:13:19;44.87;42.88;50.92;;
43787;Laerm;29409;49.306;8.500;2023-05-02T05:14:20;44.79;43.09;49.93;;
43787;Laerm;29409;49.306;8.500;2023-05-02T05:15:20;46.18;43.44;50.37;;
43787;Laerm;29409;49.306;8.500;2023-05-02T05:16:22;46.79;43.14;65.86;;
43787;Laerm;29409;49.306;8.500;2023-05-02T05:17:23;46.52;43.49;66.26;;
43787;Laerm;29409;49.306;8.500;2023-05-02T05:18:23;46.35;43.49;61.71;;
43787;Laerm;29409;49.306;8.500;2023-05-02T05:19:23;46.77;43.34;56.70;;
43787;Laerm;29409;49.306;8.500;2023-05-02T05:20:24;46.13;42.53;53.62;;
43787;Laerm;29409;49.306;8.500;2023-05-02T05:21:24;46.03;42.88;52.66;;
43787;Laerm;29409;49.306;8.500;2023-05-02T05:22:24;45.22;42.53;50.20;;
43787;Laerm;29409;49.306;8.500;2023-05-02T05:23:24;47.86;42.35;56.65;;
43787;Laerm;29409;49.306;8.500;2023-05-02T05:24:24;49.40;42.35;63.17;;
43787;Laerm;29409;49.306;8.500;2023-05-02T05:25:25;48.15;42.35;60.35;;
43787;Laerm;29409;49.306;8.500;2023-05-02T05:26:26;49.25;42.88;62.27;;
43787;Laerm;29409;49.306;8.500;2023-05-02T05:27:26;48.07;42.22;61.25;;
43787;Laerm;29409;49.306;8.500;2023-05-02T05:28:27;44.44;42.16;48.76;;
43787;Laerm;29409;49.306;8.500;2023-05-02T05:29:29;45.14;42.09;52.45;;
43787;Laerm;29409;49.306;8.500;2023-05-02T05:30:30;46.62;42.76;58.99;;
43787;Laerm;29409;49.306;8.500;2023-05-02T05:31:31;47.71;42.47;60.97;;
43787;Laerm;29409;49.306;8.500;2023-05-02T05:32:31;46.67;42.16;60.76;;
43787;Laerm;29409;49.306;8.500;2023-05-02T05:33:32;47.07;42.58;55.75;;
43787;Laerm;29409;49.306;8.500;2023-05-02T05:34:33;47.27;42.03;60.00;;
43787;Laerm;29409;49.306;8.500;2023-05-02T05:35:33;44.62;42.41;52.03;;
43787;Laerm;29409;49.306;8.500;2023-05-02T05:36:34;47.30;42.82;66.63;;
43787;Laerm;29409;49.306;8.500;2023-05-02T05:37:34;46.24;42.29;58.70;;
43787;Laerm;29409;49.306;8.500;2023-05-02T05:38:36;44.75;42.71;51.07;;
43787;Laerm;29409;49.306;8.500;2023-05-02T05:39:36;48.65;42.53;59.15;;
43787;Laerm;29409;49.306;8.500;2023-05-02T05:40:37;46.45;42.35;61.36;;
43787;Laerm;29409;49.306;8.500;2023-05-02T05:41:37;48.78;43.44;57.98;;
43787;Laerm;29409;49.306;8.500;2023-05-02T05:42:37;46.66;42.93;53.06;;
43787;Laerm;29409;49.306;8.500;2023-05-02T05:43:37;44.99;42.82;49.49;;
43787;Laerm;29409;49.306;8.500;2023-05-02T05:44:38;44.57;42.35;55.89;;
43787;Laerm;29409;49.306;8.500;2023-05-02T05:45:38;44.91;42.22;58.87;;
43787;Laerm;29409;49.306;8.500;2023-05-02T05:46:38;45.48;42.41;51.32;;
43787;Laerm;29409;49.306;8.500;2023-05-02T05:47:39;45.74;42.88;59.63;;
43787;Laerm;29409;49.306;8.500;2023-05-02T05:48:39;50.24;43.72;69.10;;
43787;Laerm;29409;49.306;8.500;2023-05-02T05:49:39;49.25;42.74;61.92;;
43787;Laerm;29409;49.306;8.500;2023-05-02T05:50:39;45.30;42.82;51.98;;
43787;Laerm;29409;49.306;8.500;2023-05-02T05:51:40;45.49;42.41;53.82;;
43787;Laerm;29409;49.306;8.500;2023-05-02T05:52:40;47.24;42.76;55.70;;
43787;Laerm;29409;49.306;8.500;2023-05-02T05:53:40;45.75;42.59;51.57;;
43787;Laerm;29409;49.306;8.500;2023-05-02T05:54:40;47.05;42.22;67.09;;
43787;Laerm;29409;49.306;8.500;2023-05-02T05:55:41;47.50;42.59;59.99;;
43787;Laerm;29409;49.306;8.500;2023-05-02T05:56:41;47.95;43.04;57.33;;
43787;Laerm;29409;49.306;8.500;2023-05-02T05:57:41;45.23;43.04;50.99;;
43787;Laerm;29409;49.306;8.500;2023-05-02T05:58:41;45.91;42.76;59.39;;
43787;Laerm;29409;49.306;8.500;2023-05-02T05:59:43;48.18;42.65;66.23;;
43787;Laerm;29409;49.306;8.500;2023-05-02T06:00:43;45.07;42.82;53.09;;
43787;Laerm;29409;49.306;8.500;2023-05-02T06:01:43;45.14;43.19;50.25;;
43787;Laerm;29409;49.306;8.500;2023-05-02T06:02:43;45.72;42.76;55.14;;
43787;Laerm;29409;49.306;8.500;2023-05-02T06:03:44;45.32;43.19;55.37;;